Time;durP1;ratioP1;P1;durP2;ratioP2;P2;SDS_P1;SDS_P2;PMS_P1;PMS_P2;Temp;Humidity;BMP_temperature;BMP_pressure;BME280_temperature;BME280_humidity;BME280_pressure;Samples;Min_cycle;Max_cycle;Signal;HPM_P1;HPM_P2
2023/03/12 00:00:29;;;;;;;6.10;2.90;;;0.90;99.90;;;;;;4993751;28;20050;-80
2023/03/12 00:02:55;;;;;;;7.30;3.10;;;0.80;99.90;;;;;;4993339;28;20053;-79
2023/03/12 00:05:21;;;;;;;11.40;3.65;;;0.80;99.90;;;;;;4992759;28;20054;-80
2023/03/12 00:07:47;;;;;;;8.65;3.33;;;0.80;99.90;;;;;;4992866;28;20086;-80
2023/03/12 00:10:13;;;;;;;9.95;3.00;;;1.40;99.90;;;;;;4993117;28;20181;-80
2023/03/12 00:12:39;;;;;;;7.88;3.47;;;0.80;99.90;;;;;;4992434;28;20652;-81
2023/03/12 00:15:06;;;;;;;6.80;3.30;;;0.80;99.90;;;;;;4993005;28;20137;-80
2023/03/12 00:17:31;;;;;;;6.35;3.10;;;0.70;99.90;;;;;;4992365;28;20050;-79
2023/03/12 00:19:57;;;;;;;8.80;2.97;;;0.70;99.90;;;;;;4992776;28;20058;-80
2023/03/12 00:22:24;;;;;;;6.63;3.35;;;1.00;99.90;;;;;;4993104;28;20043;-79
2023/03/12 00:24:55;;;;;;;6.30;2.95;;;0.60;99.90;;;;;;4992814;28;20094;-79
2023/03/12 00:27:22;;;;;;;4.93;2.80;;;0.80;99.90;;;;;;4993266;28;20046;-80
2023/03/12 00:29:48;;;;;;;6.22;2.45;;;0.60;99.90;;;;;;4992909;28;20046;-79
2023/03/12 00:32:14;;;;;;;7.10;2.90;;;0.90;99.90;;;;;;4993127;28;20072;-79
2023/03/12 00:34:39;;;;;;;7.60;2.88;;;0.40;99.90;;;;;;4993048;28;20054;-80
2023/03/12 00:37:06;;;;;;;11.45;3.13;;;0.50;99.90;;;;;;4992685;28;20042;-80
2023/03/12 00:39:33;;;;;;;8.13;2.78;;;0.50;99.90;;;;;;4991279;28;20061;-80
2023/03/12 00:41:59;;;;;;;10.73;2.78;;;0.50;99.90;;;;;;4991981;28;20096;-79
2023/03/12 00:44:25;;;;;;;12.93;3.40;;;0.90;99.90;;;;;;4992975;28;20053;-79
2023/03/12 00:46:51;;;;;;;6.57;2.92;;;0.50;99.90;;;;;;4992576;28;20042;-80
2023/03/12 00:49:16;;;;;;;8.05;3.00;;;1.00;99.90;;;;;;4992678;28;20054;-79
2023/03/12 00:51:42;;;;;;;5.88;2.53;;;0.40;99.90;;;;;;4992811;28;20042;-80
2023/03/12 00:54:08;;;;;;;10.05;2.70;;;0.40;99.90;;;;;;4991001;28;20486;-80
2023/03/12 00:56:34;;;;;;;8.73;3.25;;;1.00;99.90;;;;;;4990802;28;20109;-80
2023/03/12 00:59:00;;;;;;;5.88;2.70;;;0.50;99.90;;;;;;4992113;28;20058;-81
2023/03/12 01:01:26;;;;;;;6.63;2.63;;;0.50;99.90;;;;;;4992877;28;20049;-81
2023/03/12 01:03:53;;;;;;;7.25;2.47;;;0.50;99.90;;;;;;4992363;28;20403;-80
2023/03/12 01:06:19;;;;;;;5.93;2.40;;;0.60;99.90;;;;;;4992667;28;20043;-80
2023/03/12 01:08:45;;;;;;;;;;;0.60;99.90;;;;;;4991456;28;20506;-80
2023/03/12 01:11:17;;;;;;;4.85;2.30;;;0.60;99.90;;;;;;4990962;28;19922;-81
2023/03/12 01:13:43;;;;;;;6.68;2.60;;;0.60;99.90;;;;;;4992644;28;20121;-80
2023/03/12 01:16:08;;;;;;;6.20;2.75;;;1.00;99.90;;;;;;4991847;28;20057;-80
2023/03/12 01:18:34;;;;;;;5.30;2.63;;;0.60;99.90;;;;;;4992654;28;20054;-80
2023/03/12 01:21:00;;;;;;;6.82;2.70;;;0.70;99.90;;;;;;4991914;28;20551;-83
2023/03/12 01:23:25;;;;;;;7.43;2.97;;;0.60;99.90;;;;;;4992087;28;20046;-82
2023/03/12 01:25:54;;;;;;;6.57;2.45;;;0.80;99.90;;;;;;4991616;28;20038;-79
2023/03/12 01:28:20;;;;;;;7.57;2.53;;;0.60;99.90;;;;;;4992531;28;20065;-78
2023/03/12 01:30:46;;;;;;;6.22;2.33;;;0.60;99.90;;;;;;4992455;28;20050;-79
2023/03/12 01:33:12;;;;;;;7.75;2.92;;;0.60;99.90;;;;;;4991018;28;20506;-81
2023/03/12 01:35:39;;;;;;;8.57;2.83;;;0.70;99.90;;;;;;4992251;28;20453;-80
2023/03/12 01:38:13;;;;;;;6.88;2.85;;;0.90;99.90;;;;;;4991420;28;20062;-81
2023/03/12 01:40:41;;;;;;;6.05;2.78;;;0.70;99.90;;;;;;4991776;28;20062;-80
2023/03/12 01:43:25;;;;;;;5.78;2.67;;;0.70;99.90;;;;;;4991727;28;20046;-80
2023/03/12 01:46:15;;;;;;;6.13;2.70;;;0.70;99.90;;;;;;4992052;28;20070;-78
2023/03/12 01:48:47;;;;;;;8.30;2.50;;;0.80;99.90;;;;;;4992253;28;20048;-80
2023/03/12 01:51:14;;;;;;;6.82;2.60;;;0.80;99.90;;;;;;4990895;28;20050;-80
2023/03/12 01:53:43;;;;;;;4.25;2.20;;;1.10;99.90;;;;;;4992826;28;20500;-80
2023/03/12 01:56:10;;;;;;;8.48;2.75;;;0.80;99.90;;;;;;4993871;28;20656;-81
2023/03/12 01:58:39;;;;;;;4.53;2.30;;;0.80;99.90;;;;;;4996203;28;20125;-80
2023/03/12 02:01:05;;;;;;;7.20;2.55;;;0.80;99.90;;;;;;4995502;28;20069;-80
2023/03/12 02:03:33;;;;;;;5.57;2.30;;;0.80;99.90;;;;;;4995887;28;20051;-80
2023/03/12 02:06:07;;;;;;;6.80;2.25;;;0.90;99.90;;;;;;4995621;28;20085;-81
2023/03/12 02:08:40;;;;;;;5.90;2.55;;;0.80;99.90;;;;;;4995575;28;20046;-81
2023/03/12 02:11:06;;;;;;;4.65;2.20;;;0.80;99.90;;;;;;4995055;28;20109;-81
2023/03/12 02:13:32;;;;;;;4.53;2.13;;;0.70;99.90;;;;;;4995933;28;20053;-81
2023/03/12 02:15:58;;;;;;;;;;;0.70;99.90;;;;;;4995833;28;20042;-80
2023/03/12 02:18:24;;;;;;;6.40;2.50;;;0.70;99.90;;;;;;4995554;28;19932;-81
2023/03/12 02:21:19;;;;;;;6.55;2.45;;;1.10;99.90;;;;;;4995592;28;20046;-81
2023/03/12 02:23:54;;;;;;;3.78;2.15;;;0.70;99.90;;;;;;4995341;28;20125;-80
2023/03/12 02:26:21;;;;;;;8.02;2.60;;;0.70;99.90;;;;;;4995151;28;20116;-80
2023/03/12 02:28:49;;;;;;;8.00;2.72;;;0.80;99.90;;;;;;4995283;28;20551;-80
2023/03/12 02:31:19;;;;;;;5.35;2.55;;;0.70;99.90;;;;;;4995264;28;20680;-80
2023/03/12 02:33:45;;;;;;;7.70;2.63;;;0.70;99.90;;;;;;4995523;28;20061;-81
2023/03/12 02:36:11;;;;;;;7.95;2.58;;;1.70;99.90;;;;;;4993769;28;20039;-80
2023/03/12 02:38:51;;;;;;;6.75;2.95;;;0.80;99.90;;;;;;4994851;28;20126;-80
2023/03/12 02:41:22;;;;;;;5.05;2.47;;;1.40;99.90;;;;;;4994414;28;20057;-80
2023/03/12 02:44:10;;;;;;;5.38;2.70;;;0.70;99.90;;;;;;4995375;28;20042;-80
2023/03/12 02:46:42;;;;;;;6.18;2.42;;;0.80;99.90;;;;;;4995009;28;20062;-79
2023/03/12 02:49:11;;;;;;;5.55;2.75;;;0.70;99.90;;;;;;4994877;28;20132;-80
2023/03/12 02:51:38;;;;;;;7.30;2.90;;;0.80;99.90;;;;;;4995160;28;20104;-80
2023/03/12 02:54:04;;;;;;;5.72;2.92;;;1.20;99.90;;;;;;4994441;28;20521;-80
2023/03/12 02:56:29;;;;;;;;;;;0.80;99.90;;;;;;4994470;28;20054;-81
2023/03/12 02:58:56;;;;;;;6.50;3.08;;;1.10;99.90;;;;;;4995017;28;19929;-78
2023/03/12 03:01:21;;;;;;;;;;;0.80;99.90;;;;;;4998142;28;20097;-81
2023/03/12 03:03:47;;;;;;;8.77;4.15;;;0.80;99.90;;;;;;4994737;28;19977;-79
2023/03/12 03:06:13;;;;;;;6.00;3.05;;;0.70;99.90;;;;;;4994337;28;20068;-79
2023/03/12 03:08:39;;;;;;;7.00;3.45;;;0.80;99.90;;;;;;4994224;28;20109;-79
2023/03/12 03:11:05;;;;;;;15.07;4.13;;;0.90;99.90;;;;;;4993671;28;20399;-80
2023/03/12 03:13:32;;;;;;;10.27;3.55;;;0.80;99.90;;;;;;4994435;28;20511;-79
2023/03/12 03:16:00;;;;;;;7.22;4.10;;;0.90;99.90;;;;;;4994135;28;20050;-77
2023/03/12 03:18:26;;;;;;;11.48;3.95;;;0.90;99.90;;;;;;4994674;28;20124;-79
2023/03/12 03:21:04;;;;;;;10.25;4.00;;;0.90;99.90;;;;;;4994761;28;20054;-79
2023/03/12 03:23:30;;;;;;;10.43;4.22;;;0.90;99.90;;;;;;4992728;28;20050;-79
2023/03/12 03:25:56;;;;;;;8.32;3.70;;;0.90;99.90;;;;;;4994198;28;20039;-78
2023/03/12 03:28:26;;;;;;;10.05;3.90;;;1.00;99.90;;;;;;4994366;28;20054;-79
2023/03/12 03:30:54;;;;;;;8.85;3.58;;;1.30;99.90;;;;;;4994558;28;20057;-79
2023/03/12 03:33:20;;;;;;;10.10;4.45;;;0.90;99.90;;;;;;4994059;28;20078;-79
2023/03/12 03:35:47;;;;;;;11.02;4.28;;;1.00;99.90;;;;;;4994451;28;20439;-79
2023/03/12 03:38:13;;;;;;;8.25;3.60;;;0.90;99.90;;;;;;4993471;28;20250;-79
2023/03/12 03:40:39;;;;;;;6.40;3.80;;;1.30;99.90;;;;;;4992808;28;20053;-79
2023/03/12 03:43:04;;;;;;;7.82;3.60;;;1.60;99.90;;;;;;4976432;28;20109;-79
2023/03/12 03:45:30;;;;;;;7.45;3.60;;;0.90;99.90;;;;;;4994099;28;20046;-79
2023/03/12 03:47:55;;;;;;;8.18;3.75;;;0.90;99.90;;;;;;4992996;28;20069;-79
2023/03/12 03:50:21;;;;;;;9.23;3.53;;;1.00;99.90;;;;;;4993610;28;20042;-79
2023/03/12 03:52:47;;;;;;;11.73;3.95;;;1.00;99.90;;;;;;4993802;28;20137;-79
2023/03/12 03:55:13;;;;;;;6.88;3.28;;;1.00;99.90;;;;;;4993009;28;20050;-79
2023/03/12 03:57:38;;;;;;;8.50;3.75;;;1.00;99.90;;;;;;4994105;28;20101;-79
2023/03/12 04:00:08;;;;;;;8.02;3.55;;;1.00;99.90;;;;;;4993459;28;20049;-79
2023/03/12 04:02:34;;;;;;;7.18;3.30;;;1.00;99.90;;;;;;4993898;28;20061;-80
2023/03/12 04:05:00;;;;;;;5.85;3.20;;;1.00;99.90;;;;;;4993455;28;20046;-77
2023/03/12 04:07:27;;;;;;;;;;;1.00;99.90;;;;;;4993599;28;20130;-79
2023/03/12 04:09:53;;;;;;;10.75;3.80;;;1.00;99.90;;;;;;4993570;28;19921;-79
2023/03/12 04:12:20;;;;;;;8.45;4.18;;;1.00;99.90;;;;;;4993002;28;20128;-79
2023/03/12 04:14:45;;;;;;;7.38;3.40;;;1.00;99.90;;;;;;4993470;28;20129;-80
2023/03/12 04:17:11;;;;;;;10.18;3.38;;;1.00;99.90;;;;;;4992679;28;20142;-79
2023/03/12 04:19:37;;;;;;;7.47;3.88;;;1.10;99.90;;;;;;4993834;28;20488;-79
2023/03/12 04:22:03;;;;;;;8.40;4.05;;;1.00;99.90;;;;;;4993197;28;20051;-77
2023/03/12 04:24:29;;;;;;;8.18;4.03;;;1.00;99.90;;;;;;4993074;28;20483;-79
2023/03/12 04:26:55;;;;;;;8.68;4.07;;;1.00;99.90;;;;;;4992809;28;20054;-79
2023/03/12 04:29:21;;;;;;;8.38;3.75;;;1.10;99.90;;;;;;4993025;28;20073;-79
2023/03/12 04:31:46;;;;;;;9.30;4.00;;;1.00;99.90;;;;;;4992423;28;20093;-79
2023/03/12 04:34:12;;;;;;;8.27;3.95;;;1.20;99.90;;;;;;4991904;28;20042;-79
2023/03/12 04:36:38;;;;;;;5.55;3.22;;;1.00;99.90;;;;;;4993196;28;20249;-79
2023/03/12 04:39:06;;;;;;;8.90;4.03;;;1.00;99.90;;;;;;4974996;28;20145;-77
2023/03/12 04:41:34;;;;;;;10.38;4.35;;;1.10;99.90;;;;;;4992558;28;20050;-79
2023/03/12 04:44:00;;;;;;;8.75;3.72;;;1.00;99.90;;;;;;4993033;28;20057;-79
2023/03/12 04:46:25;;;;;;;7.90;4.03;;;1.00;99.90;;;;;;4992772;28;20042;-79
2023/03/12 04:48:51;;;;;;;8.32;3.95;;;1.10;99.90;;;;;;4992816;28;20053;-79
2023/03/12 04:51:17;;;;;;;9.10;4.30;;;1.10;99.90;;;;;;4991591;28;20050;-79
2023/03/12 04:53:43;;;;;;;7.25;3.65;;;1.10;99.90;;;;;;4992545;28;20043;-78
2023/03/12 04:56:09;;;;;;;10.38;4.38;;;1.10;99.90;;;;;;4992060;28;20109;-79
2023/03/12 04:58:35;;;;;;;8.88;4.18;;;1.10;99.90;;;;;;4992926;28;20065;-79
2023/03/12 05:01:00;;;;;;;9.23;4.28;;;1.10;99.90;;;;;;4992941;28;20085;-79
2023/03/12 05:03:26;;;;;;;10.40;3.97;;;1.50;99.90;;;;;;4992252;28;20081;-79
2023/03/12 05:05:52;;;;;;;12.75;4.93;;;1.10;99.90;;;;;;4992826;28;20472;-79
2023/03/12 05:08:18;;;;;;;12.90;4.70;;;1.10;99.90;;;;;;4991942;28;20419;-79
2023/03/12 05:10:44;;;;;;;14.52;4.90;;;1.10;99.90;;;;;;4992041;28;20057;-80
2023/03/12 05:13:15;;;;;;;9.95;4.45;;;1.10;99.90;;;;;;4992337;28;20060;-79
2023/03/12 05:15:41;;;;;;;12.60;5.03;;;1.10;99.90;;;;;;4992617;28;20050;-79
2023/03/12 05:18:06;;;;;;;8.80;3.95;;;1.50;99.90;;;;;;4992494;28;20105;-77
2023/03/12 05:20:32;;;;;;;9.23;5.03;;;1.20;99.90;;;;;;4992344;28;20050;-78
2023/03/12 05:22:58;;;;;;;10.07;3.90;;;1.10;99.90;;;;;;4992215;28;20046;-79
2023/03/12 05:25:23;;;;;;;10.05;4.35;;;1.10;99.90;;;;;;4991728;28;20056;-80
2023/03/12 05:27:49;;;;;;;10.15;4.25;;;1.10;99.90;;;;;;4991690;28;20128;-79
2023/03/12 05:30:15;;;;;;;8.75;4.43;;;1.20;99.90;;;;;;4991974;28;20088;-79
2023/03/12 05:32:41;;;;;;;8.32;4.50;;;1.10;99.90;;;;;;4992276;28;20127;-79
2023/03/12 05:35:07;;;;;;;8.55;4.03;;;1.10;99.90;;;;;;4992407;28;20039;-79
2023/03/12 05:37:32;;;;;;;9.65;4.28;;;1.10;99.90;;;;;;4990560;28;20046;-79
2023/03/12 05:39:59;;;;;;;7.40;3.88;;;1.20;99.90;;;;;;4991829;28;20043;-78
2023/03/12 05:42:25;;;;;;;11.32;4.57;;;1.60;99.90;;;;;;4992242;28;20108;-79
2023/03/12 05:44:51;;;;;;;9.70;4.25;;;1.10;99.90;;;;;;4992397;28;20094;-79
2023/03/12 05:47:17;;;;;;;9.68;4.22;;;1.20;99.90;;;;;;4990795;28;20042;-79
2023/03/12 05:49:43;;;;;;;8.25;3.75;;;1.10;99.90;;;;;;4992120;28;20477;-79
2023/03/12 05:52:09;;;;;;;10.30;4.05;;;1.10;99.90;;;;;;4992152;28;20504;-78
2023/03/12 05:54:35;;;;;;;8.25;3.78;;;1.10;99.90;;;;;;4990576;28;20053;-79
2023/03/12 05:57:02;;;;;;;10.27;4.05;;;1.30;99.90;;;;;;4991439;28;20058;-78
2023/03/12 05:59:28;;;;;;;9.63;4.43;;;1.10;99.90;;;;;;4991616;28;20484;-79
2023/03/12 06:01:54;;;;;;;11.23;4.13;;;1.10;99.90;;;;;;4991895;28;20058;-79
2023/03/12 06:04:20;;;;;;;9.73;4.10;;;1.10;99.90;;;;;;4991399;28;20051;-79
2023/03/12 06:06:46;;;;;;;7.75;3.80;;;1.10;99.90;;;;;;4991023;28;20049;-79
2023/03/12 06:09:12;;;;;;;9.40;3.67;;;1.10;99.90;;;;;;4990975;28;20172;-77
2023/03/12 06:11:37;;;;;;;12.65;4.95;;;1.10;99.90;;;;;;4991469;28;20093;-79
2023/03/12 06:14:04;;;;;;;9.20;3.33;;;1.10;99.90;;;;;;4991843;28;20235;-79
2023/03/12 06:16:29;;;;;;;;;;;1.10;99.90;;;;;;4991692;28;20463;-79
2023/03/12 06:19:00;;;;;;;7.28;3.83;;;1.10;99.90;;;;;;4991973;28;19989;-79
2023/03/12 06:21:29;;;;;;;8.75;3.83;;;1.10;99.90;;;;;;4990361;28;20065;-79
2023/03/12 06:23:55;;;;;;;6.85;3.83;;;1.10;99.90;;;;;;4991291;28;20427;-79
2023/03/12 06:26:21;;;;;;;7.47;4.60;;;1.10;99.90;;;;;;4990242;28;20054;-79
2023/03/12 06:28:48;;;;;;;11.52;4.45;;;1.10;99.90;;;;;;4992293;28;20053;-78
2023/03/12 06:31:15;;;;;;;6.40;3.65;;;1.10;99.90;;;;;;4990405;28;20062;-77
2023/03/12 06:33:41;;;;;;;9.38;4.68;;;1.10;99.90;;;;;;4991815;28;20126;-79
2023/03/12 06:36:09;;;;;;;12.38;4.60;;;1.10;99.90;;;;;;4990718;28;20515;-79
2023/03/12 06:38:35;;;;;;;9.80;4.97;;;1.10;99.90;;;;;;4991028;28;20050;-79
2023/03/12 06:41:04;;;;;;;9.00;4.32;;;1.20;99.90;;;;;;4994179;28;20050;-79
2023/03/12 06:43:32;;;;;;;11.30;4.68;;;1.10;99.90;;;;;;4994879;28;20046;-78
2023/03/12 06:45:58;;;;;;;7.90;4.20;;;1.60;99.90;;;;;;4994135;28;20129;-79
2023/03/12 06:48:26;;;;;;;10.65;4.65;;;1.30;99.90;;;;;;4994516;28;20097;-79
2023/03/12 06:50:52;;;;;;;13.75;4.82;;;1.20;99.90;;;;;;4995013;28;20052;-79
2023/03/12 06:53:19;;;;;;;9.10;4.68;;;1.40;99.90;;;;;;4994240;28;20046;-79
2023/03/12 06:55:44;;;;;;;6.85;4.07;;;1.20;99.90;;;;;;4993992;28;20054;-79
2023/03/12 06:58:11;;;;;;;13.48;4.57;;;2.10;99.90;;;;;;4993958;28;20062;-79
2023/03/12 07:00:37;;;;;;;;;;;1.30;99.90;;;;;;4995007;28;20510;-80
2023/03/12 07:03:02;;;;;;;7.90;3.78;;;1.30;99.90;;;;;;4994798;28;19921;-77
2023/03/12 07:05:28;;;;;;;15.77;5.10;;;1.20;99.90;;;;;;4994064;28;20055;-78
2023/03/12 07:07:54;;;;;;;;;;;1.60;99.90;;;;;;4994790;28;20050;-78
2023/03/12 07:10:20;;;;;;;9.07;4.15;;;1.30;99.90;;;;;;4994017;28;19999;-78
2023/03/12 07:12:46;;;;;;;9.98;4.45;;;1.50;99.90;;;;;;4994953;28;20484;-78
2023/03/12 07:15:12;;;;;;;9.20;4.45;;;1.30;99.90;;;;;;4994899;28;20050;-78
2023/03/12 07:17:38;;;;;;;7.68;3.88;;;1.50;99.90;;;;;;4994378;28;20050;-78
2023/03/12 07:20:04;;;;;;;7.95;4.38;;;1.30;99.90;;;;;;4994413;28;20050;-78
2023/03/12 07:22:30;;;;;;;9.25;4.78;;;1.40;99.90;;;;;;4993978;28;20042;-78
2023/03/12 07:24:55;;;;;;;7.93;4.80;;;1.40;99.90;;;;;;4993570;28;20053;-77
2023/03/12 07:27:21;;;;;;;9.73;4.93;;;1.90;99.90;;;;;;4993552;28;20060;-77
2023/03/12 07:29:47;;;;;;;10.85;4.88;;;1.70;99.90;;;;;;4993088;28;20054;-77
2023/03/12 07:32:12;;;;;;;8.90;4.03;;;1.40;99.90;;;;;;4993887;28;20502;-78
2023/03/12 07:34:38;;;;;;;6.07;3.90;;;1.40;99.90;;;;;;4992705;28;20073;-77
2023/03/12 07:37:04;;;;;;;8.07;4.13;;;1.30;99.90;;;;;;4993787;28;20101;-77
2023/03/12 07:39:30;;;;;;;13.80;4.28;;;1.40;99.90;;;;;;4993519;28;20053;-77
2023/03/12 07:41:56;;;;;;;10.63;4.63;;;1.40;99.90;;;;;;4992223;28;20046;-77
2023/03/12 07:44:21;;;;;;;10.45;4.78;;;1.40;99.90;;;;;;4993361;28;20109;-77
2023/03/12 07:46:47;;;;;;;9.15;5.25;;;1.50;99.90;;;;;;4994164;28;20488;-76
2023/03/12 07:49:13;;;;;;;12.13;4.80;;;1.50;99.90;;;;;;4993284;28;20052;-77
2023/03/12 07:51:39;;;;;;;8.50;4.53;;;1.70;99.90;;;;;;4992752;28;20038;-77
2023/03/12 07:54:04;;;;;;;7.60;3.90;;;2.10;99.90;;;;;;4992516;28;20468;-77
2023/03/12 07:56:30;;;;;;;12.50;4.93;;;1.50;99.90;;;;;;4992943;28;20058;-76
2023/03/12 07:58:56;;;;;;;13.93;4.85;;;1.90;99.90;;;;;;4994002;28;20054;-77
2023/03/12 08:01:23;;;;;;;9.93;4.47;;;1.50;99.90;;;;;;4993221;28;20046;-77
2023/03/12 08:03:49;;;;;;;10.25;4.68;;;1.50;99.90;;;;;;4993091;28;20499;-77
2023/03/12 08:06:15;;;;;;;8.65;5.00;;;2.00;99.90;;;;;;4992126;28;20093;-77
2023/03/12 08:08:41;;;;;;;13.60;5.20;;;1.40;99.90;;;;;;4991735;28;20170;-77
2023/03/12 08:11:08;;;;;;;14.55;5.07;;;1.40;99.90;;;;;;4993376;28;20050;-77
2023/03/12 08:13:34;;;;;;;10.45;4.63;;;1.50;99.90;;;;;;4993461;28;20050;-77
2023/03/12 08:16:00;;;;;;;13.30;5.10;;;1.40;99.90;;;;;;4993530;28;20180;-77
2023/03/12 08:18:26;;;;;;;6.30;4.15;;;1.30;99.90;;;;;;4991908;28;20460;-77
2023/03/12 08:20:53;;;;;;;8.85;5.00;;;1.80;99.90;;;;;;4993261;28;20054;-77
2023/03/12 08:23:20;;;;;;;10.07;5.50;;;1.30;99.90;;;;;;4992889;28;20046;-77
2023/03/12 08:25:49;;;;;;;9.65;5.57;;;1.30;99.90;;;;;;4992875;28;20048;-77
2023/03/12 08:28:17;;;;;;;11.43;4.57;;;1.60;99.90;;;;;;4992273;28;20116;-77
2023/03/12 08:30:51;;;;;;;10.63;5.07;;;1.30;99.90;;;;;;4993015;28;20104;-76
2023/03/12 08:33:17;;;;;;;10.82;5.22;;;1.30;99.90;;;;;;4993159;28;20129;-77
2023/03/12 08:35:43;;;;;;;;;;;1.30;99.90;;;;;;4991822;28;20046;-78
2023/03/12 08:38:09;;;;;;;12.20;4.88;;;1.30;99.90;;;;;;4992475;28;19921;-78
2023/03/12 08:40:34;;;;;;;8.73;4.50;;;1.20;99.90;;;;;;4992458;28;20471;-76
2023/03/12 08:43:00;;;;;;;13.50;5.45;;;1.20;99.90;;;;;;4992996;28;20051;-76
2023/03/12 08:45:26;;;;;;;9.52;5.05;;;1.30;99.90;;;;;;4991656;28;20130;-76
2023/03/12 08:47:52;;;;;;;9.43;4.85;;;1.30;99.90;;;;;;4992715;28;20157;-75
2023/03/12 08:50:20;;;;;;;9.52;5.05;;;1.30;99.90;;;;;;4991749;28;20046;-75
2023/03/12 08:52:47;;;;;;;9.68;5.03;;;1.30;99.90;;;;;;4992247;28;20050;-75
2023/03/12 08:55:13;;;;;;;9.88;5.10;;;1.40;99.90;;;;;;4992158;28;20038;-74
2023/03/12 08:57:39;;;;;;;7.35;4.45;;;1.40;99.90;;;;;;4992341;28;20054;-74
2023/03/12 09:00:10;;;;;;;;;;;1.40;99.90;;;;;;4993187;28;20058;-77
2023/03/12 09:02:36;;;;;;;11.27;4.80;;;1.50;99.90;;;;;;4992143;28;19922;-79
2023/03/12 09:05:02;;;;;;;9.88;5.13;;;1.50;99.90;;;;;;4992324;28;20488;-76
2023/03/12 09:07:30;;;;;;;9.02;5.05;;;1.50;99.90;;;;;;4990458;28;20046;-77
2023/03/12 09:09:55;;;;;;;14.98;5.32;;;1.50;99.90;;;;;;4991903;28;20129;-77
2023/03/12 09:12:22;;;;;;;10.20;5.13;;;1.50;99.90;;;;;;4992662;28;20177;-77
2023/03/12 09:14:48;;;;;;;9.93;4.95;;;1.60;99.90;;;;;;4992195;28;20057;-77
2023/03/12 09:17:14;;;;;;;;;;;1.50;99.90;;;;;;4992896;28;20058;-77
2023/03/12 09:19:39;;;;;;;7.38;4.32;;;1.50;99.90;;;;;;4992176;28;19926;-76
2023/03/12 09:22:05;;;;;;;9.50;4.68;;;1.50;99.90;;;;;;4992073;28;20100;-76
2023/03/12 09:24:31;;;;;;;10.02;4.80;;;1.90;99.90;;;;;;4991097;28;20105;-77
2023/03/12 09:26:56;;;;;;;8.90;4.70;;;2.00;99.90;;;;;;4992252;28;20047;-75
2023/03/12 09:29:23;;;;;;;10.23;5.30;;;1.40;99.90;;;;;;4991793;28;20468;-77
2023/03/12 09:31:50;;;;;;;12.30;5.47;;;1.40;99.90;;;;;;4990031;28;20054;-77
2023/03/12 09:34:15;;;;;;;8.35;4.88;;;1.70;99.90;;;;;;4991541;28;20411;-77
2023/03/12 09:36:41;;;;;;;11.98;5.68;;;1.30;99.90;;;;;;4990490;28;20053;-77
2023/03/12 09:39:07;;;;;;;12.82;5.95;;;1.30;99.90;;;;;;4991099;28;20064;-77
2023/03/12 09:41:38;;;;;;;14.85;5.95;;;1.30;99.90;;;;;;4990708;28;20050;-77
2023/03/12 09:44:17;;;;;;;11.55;5.70;;;1.30;99.90;;;;;;4991253;28;20058;-77
2023/03/12 09:46:49;;;;;;;12.77;5.50;;;1.30;99.90;;;;;;4990999;28;20673;-77
2023/03/12 09:49:40;;;;;;;11.00;5.70;;;1.40;99.90;;;;;;4991349;28;20154;-78
2023/03/12 09:52:26;;;;;;;11.38;6.18;;;1.40;99.90;;;;;;4990744;28;20042;-76
2023/03/12 09:55:05;;;;;;;9.00;5.55;;;1.40;99.90;;;;;;4990564;28;20196;-77
2023/03/12 09:57:32;;;;;;;10.55;5.35;;;1.40;99.90;;;;;;4989516;28;20060;-77
2023/03/12 09:59:58;;;;;;;;;;;1.40;99.90;;;;;;4991744;28;20105;-77
2023/03/12 10:02:26;;;;;;;9.75;5.55;;;1.40;99.90;;;;;;4989817;28;19922;-77
2023/03/12 10:05:04;;;;;;;9.20;5.03;;;1.40;99.90;;;;;;4990358;28;20128;-77
2023/03/12 10:07:47;;;;;;;11.30;5.90;;;1.40;99.90;;;;;;4990550;28;20054;-77
2023/03/12 10:10:24;;;;;;;11.27;5.82;;;1.40;99.90;;;;;;4989683;28;20477;-77
2023/03/12 10:12:59;;;;;;;12.32;6.50;;;1.40;99.90;;;;;;4990674;28;20050;-77
2023/03/12 10:15:43;;;;;;;12.20;6.53;;;1.40;99.90;;;;;;4993290;28;20046;-77
2023/03/12 10:18:30;;;;;;;11.20;5.95;;;1.50;99.90;;;;;;4994781;28;20100;-77
2023/03/12 10:21:02;;;;;;;;;;;1.60;99.90;;;;;;4995351;28;20112;-77
2023/03/12 10:23:40;;;;;;;14.25;7.78;;;1.60;99.90;;;;;;4994768;28;19929;-77
2023/03/12 10:26:21;;;;;;;13.57;5.85;;;1.70;99.90;;;;;;4995284;28;20050;-76
2023/03/12 10:29:11;;;;;;;21.90;7.32;;;1.70;99.90;;;;;;4995220;28;20043;-77
2023/03/12 10:31:55;;;;;;;11.45;5.65;;;1.80;99.90;;;;;;4995503;28;20053;-77
2023/03/12 10:34:25;;;;;;;11.98;5.68;;;1.80;99.90;;;;;;4995688;28;20050;-77
2023/03/12 10:36:51;;;;;;;10.77;5.65;;;1.90;99.90;;;;;;4995234;28;20046;-77
2023/03/12 10:39:19;;;;;;;12.93;6.30;;;2.00;99.90;;;;;;4994703;28;20054;-74
2023/03/12 10:41:47;;;;;;;14.57;6.35;;;2.20;99.90;;;;;;4993569;28;20499;-77
2023/03/12 10:44:21;;;;;;;13.45;5.57;;;2.00;99.90;;;;;;4995031;28;20057;-76
2023/03/12 10:47:05;;;;;;;13.93;6.47;;;2.10;99.90;;;;;;4994519;28;20120;-77
2023/03/12 10:49:33;;;;;;;12.27;6.65;;;2.10;99.90;;;;;;4994919;28;20052;-78
2023/03/12 10:52:01;;;;;;;14.75;7.38;;;2.20;99.90;;;;;;4994654;28;20587;-77
2023/03/12 10:54:39;;;;;;;12.20;5.90;;;2.20;99.90;;;;;;4994088;28;20038;-77
2023/03/12 10:57:06;;;;;;;16.17;7.35;;;2.80;99.90;;;;;;4993571;28;20153;-78
2023/03/12 10:59:35;;;;;;;15.43;7.25;;;2.40;99.90;;;;;;4994655;28;20117;-77
2023/03/12 11:02:20;;;;;;;14.18;6.90;;;2.40;99.90;;;;;;4993917;28;20130;-78
2023/03/12 11:04:50;;;;;;;13.35;7.05;;;2.40;99.90;;;;;;4993900;28;20053;-77
2023/03/12 11:07:29;;;;;;;12.63;6.47;;;2.50;99.90;;;;;;4993961;28;20086;-78
2023/03/12 11:10:07;;;;;;;17.05;6.80;;;2.50;99.90;;;;;;4993673;28;20622;-77
2023/03/12 11:12:35;;;;;;;15.73;7.40;;;2.60;99.90;;;;;;4994245;28;20050;-77
2023/03/12 11:15:25;;;;;;;17.17;7.13;;;2.60;99.90;;;;;;4994020;28;20233;-77
2023/03/12 11:17:51;;;;;;;11.70;6.28;;;2.60;99.90;;;;;;4993970;28;20054;-78
2023/03/12 11:20:19;;;;;;;;;;;2.80;99.90;;;;;;4994601;28;20046;-81
2023/03/12 11:22:45;;;;;;;14.70;7.13;;;2.70;99.90;;;;;;4993512;28;19928;-76
2023/03/12 11:25:22;;;;;;;12.60;6.50;;;2.80;99.90;;;;;;4992965;28;20181;-78
2023/03/12 11:27:53;;;;;;;16.02;6.93;;;2.90;99.90;;;;;;4991350;28;20089;-78
2023/03/12 11:30:26;;;;;;;12.57;7.20;;;3.00;99.90;;;;;;4992867;28;20395;-78
2023/03/12 11:32:51;;;;;;;11.65;6.28;;;3.00;99.90;;;;;;4993215;28;20496;-78
2023/03/12 11:35:44;;;;;;;14.68;6.88;;;3.10;99.90;;;;;;4993317;28;20050;-78
2023/03/12 11:38:17;;;;;;;13.93;6.55;;;3.10;99.90;;;;;;4993138;28;20078;-78
2023/03/12 11:40:55;;;;;;;11.57;6.45;;;3.30;99.90;;;;;;4991955;28;20054;-78
2023/03/12 11:43:33;;;;;;;15.18;6.55;;;3.40;99.90;;;;;;4993328;28;20058;-78
2023/03/12 11:46:35;;;;;;;14.95;6.95;;;3.50;99.90;;;;;;4993054;28;20395;-78
2023/03/12 11:49:30;;;;;;;13.50;6.68;;;3.60;99.90;;;;;;4992685;28;20050;-78
2023/03/12 11:52:13;;;;;;;11.95;6.43;;;3.70;99.90;;;;;;4993031;28;20062;-78
2023/03/12 11:55:10;;;;;;;14.25;6.28;;;3.80;99.90;;;;;;4993273;28;20086;-78
2023/03/12 11:58:19;;;;;;;18.70;6.57;;;3.90;99.90;;;;;;4993025;28;20177;-78
2023/03/12 12:01:09;;;;;;;12.30;6.47;;;4.00;99.90;;;;;;4991905;28;20057;-78
2023/03/12 12:03:52;;;;;;;14.65;6.75;;;4.00;99.90;;;;;;4993267;28;20407;-78
2023/03/12 12:06:26;;;;;;;12.73;6.05;;;4.10;99.90;;;;;;4993259;28;20381;-79
2023/03/12 12:09:27;;;;;;;12.48;6.22;;;4.20;99.90;;;;;;4991552;28;20047;-78
2023/03/12 12:12:25;;;;;;;12.00;5.57;;;4.30;99.90;;;;;;4973382;28;20080;-77
2023/03/12 12:14:57;;;;;;;12.65;6.25;;;4.40;99.90;;;;;;4993323;28;20046;-77
2023/03/12 12:17:41;;;;;;;13.32;5.85;;;4.50;99.90;;;;;;4992251;28;20407;-77
2023/03/12 12:20:15;;;;;;;14.65;6.30;;;4.60;99.90;;;;;;4993066;28;20586;-77
2023/03/12 12:23:02;;;;;;;18.52;5.93;;;4.60;99.90;;;;;;4992644;28;20046;-80
2023/03/12 12:25:37;;;;;;;14.67;5.87;;;4.70;99.90;;;;;;4992893;28;20042;-80
2023/03/12 12:28:11;;;;;;;15.75;6.65;;;4.90;99.90;;;;;;4992642;28;20046;-81
2023/03/12 12:31:15;;;;;;;16.20;6.97;;;4.90;99.90;;;;;;4993459;28;20053;-81
2023/03/12 12:34:00;;;;;;;15.02;5.93;;;5.00;99.90;;;;;;4992798;28;20050;-79
2023/03/12 12:36:28;;;;;;;19.77;6.85;;;5.10;99.90;;;;;;4992912;28;20134;-80
2023/03/12 12:39:00;;;;;;;16.95;6.90;;;5.20;99.90;;;;;;4990648;28;20073;-80
2023/03/12 12:41:29;;;;;;;17.73;7.18;;;5.20;99.90;;;;;;4991309;28;20061;-80
2023/03/12 12:43:56;;;;;;;13.93;6.63;;;5.30;99.90;;;;;;4992696;28;20080;-80
2023/03/12 12:46:34;;;;;;;13.82;6.00;;;5.40;99.90;;;;;;4993030;28;20070;-81
2023/03/12 12:49:10;;;;;;;20.25;6.30;;;5.50;99.90;;;;;;4990817;28;20100;-81
2023/03/12 12:51:42;;;;;;;16.45;6.97;;;5.50;99.90;;;;;;4993033;28;20053;-80
2023/03/12 12:54:21;;;;;;;14.02;6.65;;;5.60;99.90;;;;;;4990930;28;20058;-81
2023/03/12 12:57:12;;;;;;;16.10;6.57;;;5.70;99.90;;;;;;4991793;28;20578;-81
2023/03/12 13:00:11;;;;;;;18.35;6.68;;;5.80;99.90;;;;;;4992632;28;20377;-81
2023/03/12 13:02:39;;;;;;;20.45;7.50;;;5.80;99.90;;;;;;4991351;28;20050;-82
2023/03/12 13:05:18;;;;;;;19.85;6.82;;;5.80;99.90;;;;;;4991700;28;20396;-82
2023/03/12 13:07:43;;;;;;;22.45;8.13;;;5.90;99.90;;;;;;4991087;28;20137;-83